Report METAR

 

LIML - Milano/Linate, Italy
Distance from station: NO 27km
Dati ricevuti: 21/05/2018 10:50
Few Clouds
Few Clouds
 Vento da NNO
Vento: NNO 9 km/h
Temperatura: 21°C
P.to Rugiada: 13°C
Umidità: 60%
Barometro: 1016 hPa
Nuvole: Few Clouds
Visibility: 10 km
Cloud details: Few Clouds 2743 m
2018/05/21 08:50 LIML 210850Z 33005KT 280V030 9999 FEW090 21/13 Q1016 NOSIG
LIME - Bergamo/Orio Ser, Italy
Distance from station: NNE 43km
Dati ricevuti: 21/05/2018 10:50
Few Clouds
Few Clouds
 Vento da NO
Vento: NO 7 km/h
Temperatura: 20°C
P.to Rugiada: 13°C
Umidità: 64%
Barometro: 1016 hPa
Nuvole: Few Clouds
Visibility: 10 km
Cloud details: Few Clouds 1219 m
2018/05/21 08:50 LIME 210850Z 31004KT 260V010 9999 FEW040 20/13 Q1016 NOSIG
 
LIMS - Piacenza, it-Afb, Italy
Distance from station: SSE 45km
Dati ricevuti: 21/05/2018 10:55
Few Clouds
Few Clouds
 Vento da NE
Vento: NE 4 km/h
Temperatura: 20°C
P.to Rugiada: 20°C
Umidità: 100%
Barometro: 1015 hPa
Nuvole: Few Clouds
Visibility: 10 km
Cloud details: Few Clouds 2134 m
2018/05/21 08:55 LIMS 210855Z 04002KT 9999 FEW070 20/20 Q1015
LIPO - Brescia/Montichi, Italy
Distance from station: ENE 65km
Dati ricevuti: 21/05/2018 10:50
Sereno
Sereno
 Vento da NE
Vento: NE 15 km/h
Temperatura: 23°C
P.to Rugiada: 10°C
Umidità: 44%
Barometro: 1015 hPa
Summary: Sereno
Visibility: superiore a 10 km
2018/05/21 08:50 LIPO 210850Z 04008KT CAVOK 23/10 Q1015